createdAt,value
2019-05-26T00:01:56.105Z,10.20
2019-05-26T00:04:25.459Z,10.20
2019-05-26T00:06:54.726Z,10.20
2019-05-26T00:09:24.072Z,10.20
2019-05-26T00:11:53.374Z,10.10
2019-05-26T00:14:22.701Z,10.10
2019-05-26T00:16:52.095Z,10.10
2019-05-26T00:19:21.507Z,10.10
2019-05-26T00:21:50.898Z,10.10
2019-05-26T00:24:20.235Z,10.10
2019-05-26T00:26:51.075Z,10.10
2019-05-26T00:29:20.567Z,10.10
2019-05-26T00:31:49.968Z,10.10
2019-05-26T00:34:19.236Z,10.10
2019-05-26T00:36:48.553Z,10.10
2019-05-26T00:39:17.891Z,10.00
2019-05-26T00:41:47.265Z,10.00
2019-05-26T00:44:16.531Z,10.00
2019-05-26T00:46:45.941Z,10.00
2019-05-26T00:49:16.230Z,10.00
2019-05-26T00:51:45.635Z,10.00
2019-05-26T00:54:15.014Z,10.10
2019-05-26T00:56:44.386Z,10.00
2019-05-26T00:59:13.685Z,10.00
2019-05-26T01:01:43.162Z,10.00
2019-05-26T01:04:12.547Z,10.00
2019-05-26T01:06:42.454Z,10.00
2019-05-26T01:09:11.743Z,10.00
2019-05-26T01:11:41.142Z,10.00
2019-05-26T01:14:10.422Z,10.00
2019-05-26T01:16:39.762Z,10.00
2019-05-26T01:19:09.153Z,10.10
2019-05-26T01:21:38.550Z,10.00
2019-05-26T01:24:07.855Z,10.00
2019-05-26T01:26:37.270Z,10.00
2019-05-26T01:29:06.645Z,10.00
2019-05-26T01:31:35.966Z,10.00
2019-05-26T01:34:05.285Z,9.90
2019-05-26T01:36:35.031Z,10.00
2019-05-26T01:39:05.871Z,9.90
2019-05-26T01:41:35.158Z,9.90
2019-05-26T01:44:04.736Z,10.00
2019-05-26T01:46:35.331Z,10.00
2019-05-26T01:49:04.618Z,10.00
2019-05-26T01:51:34.066Z,9.90
2019-05-26T01:54:03.414Z,10.00
2019-05-26T01:56:32.788Z,9.90
2019-05-26T01:59:02.095Z,9.90
2019-05-26T02:01:31.408Z,9.80
2019-05-26T02:04:00.722Z,9.80
2019-05-26T02:06:30.135Z,9.70
2019-05-26T02:08:59.406Z,9.70
2019-05-26T02:11:28.796Z,9.60
2019-05-26T02:13:58.081Z,9.60
2019-05-26T02:16:27.401Z,9.60
2019-05-26T02:18:56.708Z,9.60
2019-05-26T02:21:26.017Z,9.60
2019-05-26T02:23:55.311Z,9.50
2019-05-26T02:26:24.719Z,9.50
2019-05-26T02:28:59.126Z,9.40
2019-05-26T02:31:28.547Z,9.30
2019-05-26T02:33:57.832Z,9.30
2019-05-26T02:36:27.282Z,9.20
2019-05-26T02:39:02.843Z,9.20
2019-05-26T02:41:27.653Z,9.20
2019-05-26T02:43:57.030Z,9.10
2019-05-26T02:46:26.342Z,9.00
2019-05-26T02:48:55.702Z,9.10
2019-05-26T02:51:25.085Z,9.00
2019-05-26T02:53:54.423Z,9.10
2019-05-26T02:56:24.017Z,9.10
2019-05-26T02:58:53.420Z,9.00
2019-05-26T03:01:23.017Z,8.90
2019-05-26T03:03:52.517Z,8.90
2019-05-26T03:06:24.839Z,9.00
2019-05-26T03:08:56.959Z,8.90
2019-05-26T03:11:27.985Z,8.90
2019-05-26T03:14:00.956Z,8.90
2019-05-26T03:16:32.378Z,8.90
2019-05-26T03:19:04.180Z,8.90
2019-05-26T03:21:35.625Z,8.90
2019-05-26T03:24:05.474Z,8.80
2019-05-26T03:26:35.014Z,8.80
2019-05-26T03:29:04.423Z,8.70
2019-05-26T03:31:33.844Z,8.70
2019-05-26T03:34:03.178Z,8.60
2019-05-26T03:36:32.593Z,8.60
2019-05-26T03:39:01.978Z,8.60
2019-05-26T03:41:31.295Z,8.70
2019-05-26T03:44:00.615Z,8.60
2019-05-26T03:46:30.012Z,8.70
2019-05-26T03:48:59.368Z,8.60
2019-05-26T03:51:28.799Z,8.60
2019-05-26T03:53:58.173Z,8.70
2019-05-26T03:56:27.619Z,8.70
2019-05-26T03:58:57.296Z,8.70
2019-05-26T04:01:26.820Z,8.80
2019-05-26T04:03:56.251Z,8.90
2019-05-26T04:06:25.664Z,8.90
2019-05-26T04:08:54.982Z,8.90
2019-05-26T04:11:24.335Z,9.00
2019-05-26T04:13:53.737Z,9.10
2019-05-26T04:16:23.149Z,9.20
2019-05-26T04:18:52.514Z,9.30
2019-05-26T04:21:21.949Z,9.30
2019-05-26T04:23:51.309Z,9.40
2019-05-26T04:26:20.623Z,9.50
2019-05-26T04:28:50.030Z,9.50
2019-05-26T04:31:19.427Z,9.50
2019-05-26T04:33:48.765Z,9.50
2019-05-26T04:36:18.070Z,9.60
2019-05-26T04:38:49.280Z,9.60
2019-05-26T04:41:18.575Z,9.60
2019-05-26T04:43:48.098Z,9.70
2019-05-26T04:46:17.493Z,9.80
2019-05-26T04:48:46.966Z,9.80
2019-05-26T04:51:16.455Z,9.90
2019-05-26T04:53:45.793Z,10.00
2019-05-26T04:56:15.183Z,10.10
2019-05-26T04:58:44.574Z,10.20
2019-05-26T05:01:13.991Z,10.20
2019-05-26T05:03:43.308Z,10.20
2019-05-26T05:06:12.682Z,10.20
2019-05-26T05:08:42.193Z,10.30
2019-05-26T05:11:11.595Z,10.40
2019-05-26T05:13:41.060Z,10.40
2019-05-26T05:16:10.472Z,10.50
2019-05-26T05:18:39.891Z,10.60
2019-05-26T05:21:09.278Z,10.70
2019-05-26T05:23:38.813Z,10.90
2019-05-26T05:26:08.214Z,11.00
2019-05-26T05:28:37.749Z,11.20
2019-05-26T05:31:07.261Z,11.20
2019-05-26T05:33:36.730Z,11.30
2019-05-26T05:36:06.104Z,11.40
2019-05-26T05:38:35.440Z,11.50
2019-05-26T05:41:04.781Z,11.80
2019-05-26T05:43:34.096Z,11.90
2019-05-26T05:46:03.509Z,12.10
2019-05-26T05:48:32.842Z,12.20
2019-05-26T05:51:02.983Z,12.30
2019-05-26T05:53:32.367Z,12.40
2019-05-26T05:56:02.763Z,12.50
2019-05-26T05:58:32.209Z,12.80
2019-05-26T06:01:01.656Z,13.00
2019-05-26T06:03:30.963Z,13.20
2019-05-26T06:06:02.622Z,13.40
2019-05-26T06:08:31.998Z,13.50
2019-05-26T06:11:15.316Z,13.80
2019-05-26T06:13:32.492Z,13.90
2019-05-26T06:16:01.932Z,13.90
2019-05-26T06:18:31.368Z,14.10
2019-05-26T06:21:00.800Z,14.20
2019-05-26T06:23:30.332Z,14.50
2019-05-26T06:25:59.737Z,14.70
2019-05-26T06:28:29.141Z,14.90
2019-05-26T06:30:58.559Z,15.20
2019-05-26T06:33:28.135Z,15.30
2019-05-26T06:35:57.530Z,15.50
2019-05-26T06:38:26.918Z,15.80
2019-05-26T06:40:56.563Z,16.00
2019-05-26T06:43:25.915Z,16.30
2019-05-26T06:45:55.361Z,16.30
2019-05-26T06:48:26.922Z,16.60
2019-05-26T06:50:55.942Z,16.90
2019-05-26T06:53:25.335Z,17.30
2019-05-26T06:55:54.740Z,17.70
2019-05-26T06:58:24.137Z,18.10
2019-05-26T07:00:53.768Z,18.30
2019-05-26T07:03:23.049Z,18.10
2019-05-26T07:05:52.514Z,18.00
2019-05-26T07:08:21.940Z,18.10
2019-05-26T07:10:51.382Z,18.10
2019-05-26T07:13:20.769Z,18.50
2019-05-26T07:15:50.099Z,18.70
2019-05-26T07:18:19.575Z,18.80
2019-05-26T07:20:48.853Z,19.00
2019-05-26T07:23:18.227Z,19.40
2019-05-26T07:25:47.780Z,19.40
2019-05-26T07:28:17.203Z,19.90
2019-05-26T07:30:46.600Z,20.50
2019-05-26T07:33:16.037Z,20.80
2019-05-26T07:35:45.438Z,21.00
2019-05-26T07:38:17.791Z,21.20
2019-05-26T07:40:47.139Z,21.30
2019-05-26T07:43:16.658Z,21.50
2019-05-26T07:45:45.973Z,21.70
2019-05-26T07:48:15.591Z,21.40
2019-05-26T07:50:45.175Z,21.50
2019-05-26T07:53:15.789Z,21.30
2019-05-26T07:55:45.201Z,21.20
2019-05-26T07:58:14.586Z,21.20
2019-05-26T08:00:43.994Z,21.00
2019-05-26T08:03:13.278Z,20.80
2019-05-26T08:05:42.762Z,21.00
2019-05-26T08:08:13.564Z,21.50
2019-05-26T08:10:43.353Z,21.90
2019-05-26T08:13:12.588Z,22.40
2019-05-26T08:15:43.394Z,23.30
2019-05-26T08:18:12.686Z,24.10
2019-05-26T08:20:45.260Z,24.50
2019-05-26T08:23:14.667Z,25.40
2019-05-26T08:25:44.091Z,25.80
2019-05-26T08:28:13.476Z,26.40
2019-05-26T08:30:42.919Z,26.80
2019-05-26T08:33:12.331Z,27.10
2019-05-26T08:35:41.731Z,27.00
2019-05-26T08:38:11.184Z,27.50
2019-05-26T08:40:40.469Z,28.10
2019-05-26T08:43:12.771Z,28.80
2019-05-26T08:45:42.209Z,28.40
2019-05-26T08:48:11.564Z,28.00
2019-05-26T08:50:40.865Z,27.30
2019-05-26T08:53:10.237Z,27.00
2019-05-26T08:55:39.578Z,26.60
2019-05-26T08:58:08.907Z,26.40
2019-05-26T09:00:38.360Z,26.10
2019-05-26T09:03:07.757Z,26.70
2019-05-26T09:05:37.233Z,27.80
2019-05-26T09:08:08.309Z,29.20
2019-05-26T09:10:37.745Z,31.00
2019-05-26T09:13:07.190Z,32.00
2019-05-26T09:15:36.734Z,30.80
2019-05-26T09:18:06.295Z,30.10
2019-05-26T09:20:35.756Z,28.90
2019-05-26T09:23:05.160Z,28.40
2019-05-26T09:25:34.550Z,27.80
2019-05-26T09:28:03.923Z,27.30
2019-05-26T09:30:33.413Z,26.80
2019-05-26T09:33:02.819Z,26.40
2019-05-26T09:35:32.278Z,26.20
2019-05-26T09:38:01.700Z,26.30
2019-05-26T09:40:31.308Z,26.40
2019-05-26T09:43:14.991Z,26.60
2019-05-26T09:45:31.754Z,26.70
2019-05-26T09:48:01.189Z,27.10
2019-05-26T09:50:30.644Z,27.30
2019-05-26T09:52:59.977Z,27.80
2019-05-26T09:55:29.451Z,27.80
2019-05-26T09:57:58.816Z,28.60
2019-05-26T10:00:28.229Z,29.30
2019-05-26T10:02:57.796Z,29.60
2019-05-26T10:05:27.210Z,30.00
2019-05-26T10:07:56.608Z,30.70
2019-05-26T10:10:26.022Z,30.60
2019-05-26T10:12:55.414Z,29.70
2019-05-26T10:15:24.815Z,28.50
2019-05-26T10:17:54.215Z,27.40
2019-05-26T10:20:23.567Z,26.80
2019-05-26T10:22:52.910Z,26.50
2019-05-26T10:25:22.344Z,25.90
2019-05-26T10:27:51.766Z,25.50
2019-05-26T10:30:21.158Z,25.20
2019-05-26T10:32:50.580Z,25.00
2019-05-26T10:35:19.983Z,24.60
2019-05-26T10:37:49.323Z,24.30
2019-05-26T10:40:18.841Z,24.30
2019-05-26T10:42:48.200Z,24.40
2019-05-26T10:45:19.707Z,24.20
2019-05-26T10:47:49.236Z,24.20
2019-05-26T10:50:18.832Z,24.40
2019-05-26T10:52:49.335Z,24.80
2019-05-26T10:55:18.710Z,25.10
2019-05-26T10:57:48.086Z,24.80
2019-05-26T11:00:19.248Z,24.60
2019-05-26T11:02:48.667Z,24.60
2019-05-26T11:05:18.090Z,24.10
2019-05-26T11:07:47.456Z,24.50
2019-05-26T11:10:17.380Z,24.50
2019-05-26T11:12:46.962Z,24.50
2019-05-26T11:15:16.383Z,24.40
2019-05-26T11:17:45.874Z,24.30
2019-05-26T11:20:15.735Z,24.50
2019-05-26T11:22:45.152Z,24.60
2019-05-26T11:25:14.629Z,25.00
2019-05-26T11:27:43.979Z,25.30
2019-05-26T11:30:14.146Z,25.50
2019-05-26T11:32:43.600Z,25.50
2019-05-26T11:35:13.487Z,25.40
2019-05-26T11:37:42.882Z,25.20
2019-05-26T11:40:12.641Z,25.20
2019-05-26T11:42:44.783Z,24.80
2019-05-26T11:45:13.435Z,24.80
2019-05-26T11:47:42.860Z,24.50
2019-05-26T11:50:12.665Z,24.10
2019-05-26T11:52:42.075Z,24.10
2019-05-26T11:55:13.114Z,24.00
2019-05-26T11:57:42.714Z,23.80
2019-05-26T12:00:14.061Z,23.70
2019-05-26T12:02:45.114Z,23.60
2019-05-26T12:05:17.517Z,23.40
2019-05-26T12:07:45.667Z,23.20
2019-05-26T12:10:15.263Z,23.00
2019-05-26T12:12:44.683Z,22.80
2019-05-26T12:15:15.047Z,22.50
2019-05-26T12:17:44.566Z,22.50
2019-05-26T12:20:15.108Z,22.40
2019-05-26T12:22:44.521Z,22.30
2019-05-26T12:25:14.968Z,22.40
2019-05-26T12:27:44.431Z,22.40
2019-05-26T12:30:17.134Z,22.30
2019-05-26T12:32:46.839Z,22.40
2019-05-26T12:35:16.747Z,22.50
2019-05-26T12:37:48.289Z,22.40
2019-05-26T12:40:18.331Z,22.50
2019-05-26T12:42:47.817Z,22.60
2019-05-26T12:45:18.301Z,22.50
2019-05-26T12:47:47.760Z,22.60
2019-05-26T12:50:17.755Z,22.70
2019-05-26T12:52:47.161Z,23.00
2019-05-26T12:55:17.545Z,23.50
2019-05-26T12:57:46.936Z,24.00
2019-05-26T13:00:16.686Z,24.40
2019-05-26T13:02:47.998Z,24.30
2019-05-26T13:05:17.620Z,23.70
2019-05-26T13:07:47.011Z,23.90
2019-05-26T13:10:16.683Z,24.00
2019-05-26T13:12:46.178Z,24.00
2019-05-26T13:15:16.109Z,23.80
2019-05-26T13:17:45.508Z,23.80
2019-05-26T13:20:16.528Z,24.00
2019-05-26T13:22:45.887Z,24.10
2019-05-26T13:25:16.898Z,24.40
2019-05-26T13:27:46.363Z,25.00
2019-05-26T13:30:16.604Z,25.20
2019-05-26T13:32:45.952Z,25.40
2019-05-26T13:35:17.050Z,25.60
2019-05-26T13:37:46.441Z,25.70
2019-05-26T13:40:16.550Z,25.90
2019-05-26T13:42:45.873Z,26.20
2019-05-26T13:45:22.452Z,26.50
2019-05-26T13:47:49.154Z,27.10
2019-05-26T13:50:18.657Z,27.60
2019-05-26T13:52:48.155Z,28.10
2019-05-26T13:55:17.815Z,28.00
2019-05-26T13:57:49.439Z,27.60
2019-05-26T14:00:18.459Z,27.10
2019-05-26T14:02:47.935Z,26.70
2019-05-26T14:05:17.812Z,26.40
2019-05-26T14:07:47.385Z,26.50
2019-05-26T14:10:29.601Z,26.70
2019-05-26T14:12:59.179Z,26.80
2019-05-26T14:15:37.386Z,27.00
2019-05-26T14:18:00.407Z,26.90
2019-05-26T14:20:37.840Z,27.00
2019-05-26T14:23:10.680Z,27.00
2019-05-26T14:25:41.769Z,27.10
2019-05-26T14:28:11.147Z,26.90
2019-05-26T14:30:40.605Z,26.50
2019-05-26T14:33:09.987Z,26.60
2019-05-26T14:35:39.435Z,26.30
2019-05-26T14:38:08.833Z,26.00
2019-05-26T14:40:38.453Z,25.90
2019-05-26T14:43:07.871Z,26.00
2019-05-26T14:45:52.304Z,25.60
2019-05-26T14:48:10.365Z,25.60
2019-05-26T14:50:40.839Z,25.70
2019-05-26T14:53:10.648Z,25.70
2019-05-26T14:55:40.061Z,25.80
2019-05-26T14:58:15.689Z,26.00
2019-05-26T15:00:40.500Z,26.10
2019-05-26T15:03:11.086Z,26.30
2019-05-26T15:05:40.631Z,26.30
2019-05-26T15:08:10.071Z,26.40
2019-05-26T15:10:39.564Z,26.40
2019-05-26T15:13:09.065Z,26.10
2019-05-26T15:15:38.489Z,25.90
2019-05-26T15:18:07.996Z,25.50
2019-05-26T15:20:37.351Z,25.10
2019-05-26T15:23:06.903Z,24.90
2019-05-26T15:25:36.381Z,24.70
2019-05-26T15:28:05.894Z,24.60
2019-05-26T15:30:35.599Z,24.30
2019-05-26T15:33:05.226Z,24.20
2019-05-26T15:35:34.671Z,24.10
2019-05-26T15:38:04.088Z,23.90
2019-05-26T15:40:33.591Z,23.90
2019-05-26T15:43:03.035Z,23.80
2019-05-26T15:45:32.439Z,23.80
2019-05-26T15:48:01.766Z,23.80
2019-05-26T15:50:31.221Z,23.80
2019-05-26T15:53:00.725Z,23.80
2019-05-26T15:55:30.213Z,23.40
2019-05-26T15:57:59.529Z,23.60
2019-05-26T16:00:28.910Z,23.70
2019-05-26T16:02:58.312Z,23.60
2019-05-26T16:05:27.776Z,23.50
2019-05-26T16:07:57.341Z,23.50
2019-05-26T16:10:27.928Z,23.60
2019-05-26T16:12:57.383Z,23.50
2019-05-26T16:18:06.546Z,23.50
2019-05-26T16:20:35.952Z,23.30
2019-05-26T16:23:08.550Z,23.30
2019-05-26T16:25:36.402Z,23.30
2019-05-26T16:28:05.892Z,23.20
2019-05-26T16:30:35.370Z,23.30
2019-05-26T16:33:05.881Z,23.00
2019-05-26T16:35:35.595Z,23.00
2019-05-26T16:38:05.272Z,22.90
2019-05-26T16:40:36.064Z,22.70
2019-05-26T16:43:05.633Z,22.80
2019-05-26T16:45:37.123Z,22.90
2019-05-26T16:48:06.147Z,22.90
2019-05-26T16:50:35.497Z,23.00
2019-05-26T16:53:04.905Z,23.00
2019-05-26T16:55:34.310Z,23.00
2019-05-26T16:58:06.852Z,22.90
2019-05-26T17:00:36.364Z,22.80
2019-05-26T17:03:05.877Z,22.70
2019-05-26T17:05:35.336Z,22.70
2019-05-26T17:08:05.945Z,22.70
2019-05-26T17:10:37.136Z,22.70
2019-05-26T17:13:06.560Z,22.60
2019-05-26T17:15:36.699Z,22.60
2019-05-26T17:18:06.216Z,22.50
2019-05-26T17:20:35.611Z,22.40
2019-05-26T17:23:06.421Z,22.40
2019-05-26T17:25:37.590Z,22.40
2019-05-26T17:28:07.039Z,22.20
2019-05-26T17:30:36.444Z,22.10
2019-05-26T17:33:06.903Z,22.10
2019-05-26T17:35:36.252Z,22.10
2019-05-26T17:38:05.605Z,22.00
2019-05-26T17:40:35.079Z,21.90
2019-05-26T17:43:04.503Z,21.80
2019-05-26T17:45:33.841Z,21.70
2019-05-26T17:48:03.367Z,21.90
2019-05-26T17:50:32.801Z,21.80
2019-05-26T17:53:02.626Z,21.80
2019-05-26T17:55:33.004Z,21.80
2019-05-26T17:58:02.438Z,21.70
2019-05-26T18:00:31.826Z,21.80
2019-05-26T18:03:01.519Z,21.70
2019-05-26T18:05:30.811Z,21.70
2019-05-26T18:08:00.356Z,21.60
2019-05-26T18:10:29.937Z,21.50
2019-05-26T18:12:59.485Z,21.60
2019-05-26T18:15:29.038Z,21.50
2019-05-26T18:17:58.459Z,21.40
2019-05-26T18:20:27.864Z,21.30
2019-05-26T18:22:57.441Z,21.30
2019-05-26T18:25:26.899Z,21.40
2019-05-26T18:27:56.312Z,21.30
2019-05-26T18:30:25.736Z,21.30
2019-05-26T18:32:55.140Z,21.20
2019-05-26T18:35:24.635Z,21.10
2019-05-26T18:37:54.096Z,21.10
2019-05-26T18:40:23.528Z,21.00
2019-05-26T18:42:53.300Z,21.10
2019-05-26T18:45:23.082Z,21.00
2019-05-26T18:48:02.346Z,21.00
2019-05-26T18:50:23.614Z,21.00
2019-05-26T18:52:53.111Z,21.00
2019-05-26T18:55:22.469Z,20.90
2019-05-26T18:57:52.008Z,20.90
2019-05-26T19:00:21.966Z,20.90
2019-05-26T19:02:51.367Z,20.90
2019-05-26T19:05:33.098Z,20.90
2019-05-26T19:07:51.897Z,20.90
2019-05-26T19:10:21.559Z,20.80
2019-05-26T19:12:50.969Z,20.90
2019-05-26T19:15:20.679Z,20.70
2019-05-26T19:17:50.118Z,20.80
2019-05-26T19:20:19.839Z,20.80
2019-05-26T19:22:53.433Z,20.70
2019-05-26T19:25:22.954Z,20.70
2019-05-26T19:27:52.347Z,20.70
2019-05-26T19:30:21.853Z,20.70
2019-05-26T19:32:51.421Z,20.70
2019-05-26T19:35:21.113Z,20.70
2019-05-26T19:37:50.528Z,20.60
2019-05-26T19:40:20.362Z,20.60
2019-05-26T19:42:49.829Z,20.60
2019-05-26T19:45:21.179Z,20.50
2019-05-26T19:47:50.550Z,20.50
2019-05-26T19:50:20.162Z,20.50
2019-05-26T19:52:50.135Z,20.50
2019-05-26T19:55:19.742Z,20.40
2019-05-26T19:57:49.355Z,20.50
2019-05-26T20:00:19.525Z,20.40
2019-05-26T20:02:48.929Z,20.30
2019-05-26T20:05:18.530Z,20.40
2019-05-26T20:07:49.543Z,20.30
2019-05-26T20:10:20.531Z,20.40
2019-05-26T20:12:50.039Z,20.40
2019-05-26T20:15:19.871Z,20.50
2019-05-26T20:17:49.185Z,20.40
2019-05-26T20:20:18.834Z,20.50
2019-05-26T20:22:48.329Z,20.30
2019-05-26T20:25:19.877Z,20.30
2019-05-26T20:27:49.269Z,20.20
2019-05-26T20:30:21.871Z,20.20
2019-05-26T20:32:51.468Z,20.30
2019-05-26T20:35:21.092Z,20.20
2019-05-26T20:37:50.479Z,20.20
2019-05-26T20:40:19.926Z,20.20
2019-05-26T20:42:49.232Z,20.20
2019-05-26T20:45:20.263Z,20.30
2019-05-26T20:47:50.989Z,20.20
2019-05-26T20:50:29.316Z,20.20
2019-05-26T20:52:51.609Z,20.20
2019-05-26T20:55:20.974Z,20.20
2019-05-26T20:57:51.776Z,20.30
2019-05-26T21:00:21.295Z,20.20
2019-05-26T21:02:51.823Z,20.30
2019-05-26T21:05:21.260Z,20.30
2019-05-26T21:07:50.888Z,20.30
2019-05-26T21:10:20.355Z,20.30
2019-05-26T21:12:49.873Z,20.20
2019-05-26T21:15:20.379Z,20.20
2019-05-26T21:17:51.243Z,20.30
2019-05-26T21:20:21.770Z,20.20
2019-05-26T21:22:52.622Z,20.30
2019-05-26T21:25:21.977Z,20.20
2019-05-26T21:27:51.670Z,20.00
2019-05-26T21:30:21.324Z,20.00
2019-05-26T21:32:50.936Z,20.10
2019-05-26T21:35:20.492Z,20.10
2019-05-26T21:37:49.946Z,20.10
2019-05-26T21:40:19.635Z,20.10
2019-05-26T21:42:49.054Z,20.10
2019-05-26T21:45:18.541Z,20.10
2019-05-26T21:47:47.878Z,20.10
2019-05-26T21:50:17.684Z,20.10
2019-05-26T21:52:47.099Z,20.00
2019-05-26T21:55:16.505Z,20.00
2019-05-26T21:57:45.973Z,20.00
2019-05-26T22:00:18.931Z,20.00
2019-05-26T22:02:48.328Z,20.00
2019-05-26T22:05:18.435Z,19.90
2019-05-26T22:07:47.873Z,19.90
2019-05-26T22:10:17.668Z,19.80
2019-05-26T22:12:47.095Z,19.80
2019-05-26T22:15:16.556Z,19.80
2019-05-26T22:17:46.030Z,19.80
2019-05-26T22:20:15.384Z,19.70
2019-05-26T22:22:44.831Z,19.70
2019-05-26T22:25:14.445Z,19.60
2019-05-26T22:27:44.983Z,19.70
2019-05-26T22:30:14.719Z,19.60
2019-05-26T22:32:44.190Z,19.60
2019-05-26T22:35:13.589Z,19.60
2019-05-26T22:37:43.018Z,19.60
2019-05-26T22:40:12.898Z,19.60
2019-05-26T22:42:42.212Z,19.50
2019-05-26T22:45:12.413Z,19.60
2019-05-26T22:47:41.832Z,19.50
2019-05-26T22:50:11.835Z,19.50
2019-05-26T22:52:41.289Z,19.50
2019-05-26T22:55:10.778Z,19.50
2019-05-26T22:57:40.175Z,19.40
2019-05-26T23:00:11.668Z,19.40
2019-05-26T23:02:41.113Z,19.50
2019-05-26T23:05:10.614Z,19.60
2019-05-26T23:07:39.989Z,19.50
2019-05-26T23:10:09.955Z,19.50
2019-05-26T23:12:39.381Z,19.50
2019-05-26T23:15:09.802Z,19.50
2019-05-26T23:17:39.627Z,19.50
2019-05-26T23:20:09.819Z,19.40
2019-05-26T23:22:39.264Z,19.50
2019-05-26T23:25:08.993Z,19.40
2019-05-26T23:27:38.413Z,19.40
2019-05-26T23:30:08.808Z,19.40
2019-05-26T23:32:38.257Z,19.40
2019-05-26T23:35:08.077Z,19.40
2019-05-26T23:37:37.513Z,19.40
2019-05-26T23:40:08.382Z,19.40
2019-05-26T23:42:39.353Z,19.30
2019-05-26T23:45:09.742Z,19.30
2019-05-26T23:47:40.890Z,19.30
2019-05-26T23:50:13.826Z,19.40
2019-05-26T23:52:43.239Z,19.40
2019-05-26T23:55:13.769Z,19.30
2019-05-26T23:57:43.183Z,19.30
